sensor_id;sensor_type;location;lat;lon;timestamp;noise_LAeq;noise_LA_min;noise_LA_max;noise_LA01;noise_LA95
40465;Laerm;30489;48.982;8.394;2023-02-12T13:09:50;40.94;39.46;42.22;;
40465;Laerm;30489;48.982;8.394;2023-02-12T13:12:27;40.95;39.70;42.29;;
40465;Laerm;30489;48.982;8.394;2023-02-12T13:16:59;40.91;39.34;42.16;;
40465;Laerm;30489;48.982;8.394;2023-02-12T13:24:20;40.90;39.57;42.22;;
40465;Laerm;30489;48.982;8.394;2023-02-12T13:26:36;40.92;39.34;42.09;;
40465;Laerm;30489;48.982;8.394;2023-02-12T13:28:52;40.93;39.46;42.35;;
40465;Laerm;30489;48.982;8.394;2023-02-12T13:31:05;40.92;39.46;42.03;;
40465;Laerm;30489;48.982;8.394;2023-02-12T13:33:19;40.92;39.34;42.09;;
40465;Laerm;30489;48.982;8.394;2023-02-12T13:35:30;40.91;39.46;42.09;;
40465;Laerm;30489;48.982;8.394;2023-02-12T13:37:44;40.91;39.34;42.16;;
40465;Laerm;30489;48.982;8.394;2023-02-12T13:39:57;40.91;39.46;42.09;;
40465;Laerm;30489;48.982;8.394;2023-02-12T13:42:16;40.92;39.57;42.29;;
40465;Laerm;30489;48.982;8.394;2023-02-12T13:44:33;40.90;39.58;41.96;;
40465;Laerm;30489;48.982;8.394;2023-02-12T13:51:47;40.94;39.58;42.35;;
40465;Laerm;30489;48.982;8.394;2023-02-12T13:56:36;40.94;39.21;42.29;;
40465;Laerm;30489;48.982;8.394;2023-02-12T13:58:50;40.95;39.46;42.16;;
40465;Laerm;30489;48.982;8.394;2023-02-12T14:01:02;40.93;39.70;42.29;;
40465;Laerm;30489;48.982;8.394;2023-02-12T14:03:13;40.93;39.46;42.16;;
40465;Laerm;30489;48.982;8.394;2023-02-12T14:05:25;40.94;39.46;42.41;;
40465;Laerm;30489;48.982;8.394;2023-02-12T14:07:40;40.90;39.34;42.22;;
40465;Laerm;30489;48.982;8.394;2023-02-12T14:14:28;40.94;39.34;42.03;;
40465;Laerm;30489;48.982;8.394;2023-02-12T14:16:42;40.94;39.46;42.09;;
40465;Laerm;30489;48.982;8.394;2023-02-12T14:23:46;40.94;39.46;42.09;;
40465;Laerm;30489;48.982;8.394;2023-02-12T14:26:16;40.94;39.34;42.41;;
40465;Laerm;30489;48.982;8.394;2023-02-12T14:28:29;40.96;39.46;42.03;;
40465;Laerm;30489;48.982;8.394;2023-02-12T14:30:43;40.96;39.46;42.09;;
40465;Laerm;30489;48.982;8.394;2023-02-12T14:37:50;40.96;39.46;42.22;;
40465;Laerm;30489;48.982;8.394;2023-02-12T14:46:58;40.95;39.58;42.03;;
40465;Laerm;30489;48.982;8.394;2023-02-12T14:53:53;41.00;39.58;42.29;;
40465;Laerm;30489;48.982;8.394;2023-02-12T14:56:21;40.98;39.46;42.35;;
40465;Laerm;30489;48.982;8.394;2023-02-12T14:58:32;40.97;39.34;42.29;;
40465;Laerm;30489;48.982;8.394;2023-02-12T15:00:43;40.97;39.58;42.35;;
40465;Laerm;30489;48.982;8.394;2023-02-12T15:03:16;40.94;39.70;42.22;;
40465;Laerm;30489;48.982;8.394;2023-02-12T15:05:31;40.93;39.34;42.22;;
40465;Laerm;30489;48.982;8.394;2023-02-12T15:07:51;40.95;39.70;42.09;;
40465;Laerm;30489;48.982;8.394;2023-02-12T15:10:06;40.96;39.46;42.16;;
40465;Laerm;30489;48.982;8.394;2023-02-12T15:12:23;40.97;39.34;42.16;;
40465;Laerm;30489;48.982;8.394;2023-02-12T15:15:23;40.97;39.70;42.65;;
40465;Laerm;30489;48.982;8.394;2023-02-12T15:20:06;40.98;39.70;42.16;;
40465;Laerm;30489;48.982;8.394;2023-02-12T15:22:24;40.98;39.70;42.22;;
40465;Laerm;30489;48.982;8.394;2023-02-12T15:24:37;40.99;39.46;42.16;;
40465;Laerm;30489;48.982;8.394;2023-02-12T15:26:50;40.99;39.70;42.16;;
40465;Laerm;30489;48.982;8.394;2023-02-12T15:29:01;40.99;39.46;42.41;;
40465;Laerm;30489;48.982;8.394;2023-02-12T15:31:20;41.00;39.58;42.29;;
40465;Laerm;30489;48.982;8.394;2023-02-12T15:33:33;41.01;39.58;42.09;;
40465;Laerm;30489;48.982;8.394;2023-02-12T15:35:44;41.02;39.70;42.16;;
40465;Laerm;30489;48.982;8.394;2023-02-12T15:37:55;41.00;39.70;42.16;;
40465;Laerm;30489;48.982;8.394;2023-02-12T15:40:06;41.01;39.58;42.41;;
40465;Laerm;30489;48.982;8.394;2023-02-12T15:42:30;40.99;39.58;42.16;;
40465;Laerm;30489;48.982;8.394;2023-02-12T15:44:41;40.98;39.70;42.22;;
40465;Laerm;30489;48.982;8.394;2023-02-12T15:49:34;40.99;39.58;42.22;;
40465;Laerm;30489;48.982;8.394;2023-02-12T15:51:44;40.98;39.46;42.22;;
40465;Laerm;30489;48.982;8.394;2023-02-12T15:53:55;40.97;39.58;42.03;;
40465;Laerm;30489;48.982;8.394;2023-02-12T15:56:14;40.97;39.58;42.16;;
40465;Laerm;30489;48.982;8.394;2023-02-12T15:58:29;40.97;39.46;42.16;;
40465;Laerm;30489;48.982;8.394;2023-02-12T16:00:41;40.95;39.58;42.22;;
40465;Laerm;30489;48.982;8.394;2023-02-12T16:02:52;40.95;39.46;42.22;;
40465;Laerm;30489;48.982;8.394;2023-02-12T16:05:04;40.96;39.58;42.16;;
40465;Laerm;30489;48.982;8.394;2023-02-12T16:07:15;40.95;39.58;42.22;;
40465;Laerm;30489;48.982;8.394;2023-02-12T16:09:30;40.93;39.46;42.16;;
40465;Laerm;30489;48.982;8.394;2023-02-12T16:11:43;40.93;39.08;42.29;;
40465;Laerm;30489;48.982;8.394;2023-02-12T16:13:55;40.91;39.46;42.35;;
40465;Laerm;30489;48.982;8.394;2023-02-12T16:18:24;40.89;39.46;41.96;;
40465;Laerm;30489;48.982;8.394;2023-02-12T16:20:34;40.91;39.21;42.16;;
40465;Laerm;30489;48.982;8.394;2023-02-12T16:22:46;40.90;39.58;42.16;;
40465;Laerm;30489;48.982;8.394;2023-02-12T16:24:56;40.91;39.70;41.96;;
40465;Laerm;30489;48.982;8.394;2023-02-12T16:27:08;40.90;39.46;42.16;;
40465;Laerm;30489;48.982;8.394;2023-02-12T16:29:25;40.90;39.46;42.22;;
40465;Laerm;30489;48.982;8.394;2023-02-12T16:31:38;40.88;39.08;42.16;;
40465;Laerm;30489;48.982;8.394;2023-02-12T16:33:50;40.88;39.46;42.35;;
40465;Laerm;30489;48.982;8.394;2023-02-12T16:40:34;40.85;39.21;42.16;;
40465;Laerm;30489;48.982;8.394;2023-02-12T16:44:55;40.82;39.46;41.96;;
40465;Laerm;30489;48.982;8.394;2023-02-12T16:47:06;40.83;39.34;42.09;;
40465;Laerm;30489;48.982;8.394;2023-02-12T16:49:22;40.81;39.46;42.29;;
40465;Laerm;30489;48.982;8.394;2023-02-12T16:51:33;40.81;39.21;42.03;;
40465;Laerm;30489;48.982;8.394;2023-02-12T16:53:44;40.81;39.34;41.96;;
40465;Laerm;30489;48.982;8.394;2023-02-12T16:55:56;40.79;39.21;41.96;;
40465;Laerm;30489;48.982;8.394;2023-02-12T16:58:07;40.79;39.08;42.03;;
40465;Laerm;30489;48.982;8.394;2023-02-12T17:00:17;40.77;39.34;42.03;;
40465;Laerm;30489;48.982;8.394;2023-02-12T17:02:28;40.77;39.34;42.22;;
40465;Laerm;30489;48.982;8.394;2023-02-12T17:04:38;40.76;39.21;42.03;;
40465;Laerm;30489;48.982;8.394;2023-02-12T17:06:49;40.74;39.34;42.03;;
40465;Laerm;30489;48.982;8.394;2023-02-12T17:08:59;40.73;39.34;41.96;;
40465;Laerm;30489;48.982;8.394;2023-02-12T17:11:09;40.73;39.21;41.89;;
40465;Laerm;30489;48.982;8.394;2023-02-12T17:13:19;40.70;39.21;41.96;;
40465;Laerm;30489;48.982;8.394;2023-02-12T17:15:32;40.69;39.34;42.76;;
40465;Laerm;30489;48.982;8.394;2023-02-12T17:17:44;40.68;39.21;44.80;;
40465;Laerm;30489;48.982;8.394;2023-02-12T17:19:54;40.67;39.08;43.00;;
40465;Laerm;30489;48.982;8.394;2023-02-12T17:22:05;40.67;39.21;42.29;;
40465;Laerm;30489;48.982;8.394;2023-02-12T17:24:22;40.65;39.21;41.96;;
40465;Laerm;30489;48.982;8.394;2023-02-12T17:26:33;40.65;38.81;41.89;;
40465;Laerm;30489;48.982;8.394;2023-02-12T17:28:43;40.65;39.21;42.03;;
40465;Laerm;30489;48.982;8.394;2023-02-12T17:30:54;40.63;39.21;41.89;;
40465;Laerm;30489;48.982;8.394;2023-02-12T17:33:05;40.63;39.08;42.03;;
40465;Laerm;30489;48.982;8.394;2023-02-12T17:35:15;40.61;38.52;42.09;;
40465;Laerm;30489;48.982;8.394;2023-02-12T17:37:25;40.59;39.08;46.59;;
40465;Laerm;30489;48.982;8.394;2023-02-12T17:39:36;40.58;39.21;41.89;;
40465;Laerm;30489;48.982;8.394;2023-02-12T17:41:47;40.57;38.67;41.82;;
40465;Laerm;30489;48.982;8.394;2023-02-12T17:43:58;40.54;39.21;41.82;;
40465;Laerm;30489;48.982;8.394;2023-02-12T17:46:12;40.53;38.87;41.75;;
40465;Laerm;30489;48.982;8.394;2023-02-12T17:48:23;40.52;38.95;41.96;;
40465;Laerm;30489;48.982;8.394;2023-02-12T17:50:33;40.52;38.95;41.82;;
40465;Laerm;30489;48.982;8.394;2023-02-12T17:52:44;40.50;38.87;41.89;;
40465;Laerm;30489;48.982;8.394;2023-02-12T17:54:54;40.48;38.67;41.89;;
40465;Laerm;30489;48.982;8.394;2023-02-12T17:57:04;40.46;38.81;41.75;;
40465;Laerm;30489;48.982;8.394;2023-02-12T17:59:15;40.46;39.21;42.03;;
40465;Laerm;30489;48.982;8.394;2023-02-12T18:01:25;40.44;38.95;41.75;;
40465;Laerm;30489;48.982;8.394;2023-02-12T18:03:35;40.42;38.81;41.75;;
40465;Laerm;30489;48.982;8.394;2023-02-12T18:05:46;40.40;38.67;41.82;;
40465;Laerm;30489;48.982;8.394;2023-02-12T18:07:56;40.39;38.81;41.68;;
40465;Laerm;30489;48.982;8.394;2023-02-12T18:10:07;40.37;38.81;41.68;;
40465;Laerm;30489;48.982;8.394;2023-02-12T18:12:18;40.35;38.47;41.61;;
40465;Laerm;30489;48.982;8.394;2023-02-12T18:14:28;40.36;38.81;41.75;;
40465;Laerm;30489;48.982;8.394;2023-02-12T18:16:38;40.35;38.52;41.82;;
40465;Laerm;30489;48.982;8.394;2023-02-12T18:18:49;40.32;38.67;41.75;;
40465;Laerm;30489;48.982;8.394;2023-02-12T18:20:59;40.32;38.67;41.68;;
40465;Laerm;30489;48.982;8.394;2023-02-12T18:23:09;40.29;38.67;41.48;;
40465;Laerm;30489;48.982;8.394;2023-02-12T18:25:20;40.28;38.67;41.68;;
40465;Laerm;30489;48.982;8.394;2023-02-12T18:27:30;40.25;38.81;41.68;;
40465;Laerm;30489;48.982;8.394;2023-02-12T18:29:40;40.23;38.67;41.68;;
40465;Laerm;30489;48.982;8.394;2023-02-12T18:31:52;40.23;38.37;41.53;;
40465;Laerm;30489;48.982;8.394;2023-02-12T18:34:03;40.19;38.52;41.89;;
40465;Laerm;30489;48.982;8.394;2023-02-12T18:36:15;40.19;38.21;41.55;;
40465;Laerm;30489;48.982;8.394;2023-02-12T18:38:26;40.19;38.52;41.68;;
40465;Laerm;30489;48.982;8.394;2023-02-12T18:40:38;40.16;38.21;41.46;;
40465;Laerm;30489;48.982;8.394;2023-02-12T18:42:48;40.17;38.52;41.61;;
40465;Laerm;30489;48.982;8.394;2023-02-12T18:44:59;40.13;38.52;41.68;;
40465;Laerm;30489;48.982;8.394;2023-02-12T18:47:09;40.11;38.05;41.53;;
40465;Laerm;30489;48.982;8.394;2023-02-12T18:49:19;40.11;38.37;41.61;;
40465;Laerm;30489;48.982;8.394;2023-02-12T18:51:29;40.10;38.52;41.46;;
40465;Laerm;30489;48.982;8.394;2023-02-12T18:53:45;40.09;38.52;41.61;;
40465;Laerm;30489;48.982;8.394;2023-02-12T18:55:55;40.06;38.52;41.46;;
40465;Laerm;30489;48.982;8.394;2023-02-12T18:58:06;40.06;38.52;41.38;;
40465;Laerm;30489;48.982;8.394;2023-02-12T19:00:16;40.05;38.52;41.53;;
40465;Laerm;30489;48.982;8.394;2023-02-12T19:02:27;40.05;37.52;41.46;;
40465;Laerm;30489;48.982;8.394;2023-02-12T19:04:37;40.03;38.37;41.46;;
40465;Laerm;30489;48.982;8.394;2023-02-12T19:06:51;40.03;38.37;41.38;;
40465;Laerm;30489;48.982;8.394;2023-02-12T19:09:02;40.03;38.21;41.61;;
40465;Laerm;30489;48.982;8.394;2023-02-12T19:11:12;40.00;38.37;41.75;;
40465;Laerm;30489;48.982;8.394;2023-02-12T19:13:23;39.98;38.37;41.46;;
40465;Laerm;30489;48.982;8.394;2023-02-12T19:15:33;39.96;38.37;41.38;;
40465;Laerm;30489;48.982;8.394;2023-02-12T19:17:43;39.95;38.05;41.53;;
40465;Laerm;30489;48.982;8.394;2023-02-12T19:19:53;39.93;37.70;41.46;;
40465;Laerm;30489;48.982;8.394;2023-02-12T19:22:04;39.92;38.37;41.22;;
40465;Laerm;30489;48.982;8.394;2023-02-12T19:24:14;39.90;38.37;41.22;;
40465;Laerm;30489;48.982;8.394;2023-02-12T19:26:25;39.91;38.05;41.30;;
40465;Laerm;30489;48.982;8.394;2023-02-12T19:28:37;39.90;38.21;41.53;;
40465;Laerm;30489;48.982;8.394;2023-02-12T19:30:48;39.88;38.21;41.38;;
40465;Laerm;30489;48.982;8.394;2023-02-12T19:32:58;39.87;37.88;41.53;;
40465;Laerm;30489;48.982;8.394;2023-02-12T19:35:08;39.86;38.05;41.68;;
40465;Laerm;30489;48.982;8.394;2023-02-12T19:37:18;39.85;37.88;41.30;;
40465;Laerm;30489;48.982;8.394;2023-02-12T19:39:29;39.84;38.05;41.30;;
40465;Laerm;30489;48.982;8.394;2023-02-12T19:41:39;39.82;37.52;41.22;;
40465;Laerm;30489;48.982;8.394;2023-02-12T19:43:53;39.81;37.88;41.46;;
40465;Laerm;30489;48.982;8.394;2023-02-12T19:46:09;39.80;38.05;41.53;;
40465;Laerm;30489;48.982;8.394;2023-02-12T19:48:19;39.80;37.88;41.30;;
40465;Laerm;30489;48.982;8.394;2023-02-12T19:50:32;39.76;37.70;41.46;;
40465;Laerm;30489;48.982;8.394;2023-02-12T19:52:42;39.74;38.05;41.19;;
40465;Laerm;30489;48.982;8.394;2023-02-12T19:54:52;39.71;37.88;40.98;;
40465;Laerm;30489;48.982;8.394;2023-02-12T19:57:03;39.71;37.52;41.82;;
40465;Laerm;30489;48.982;8.394;2023-02-12T19:59:18;39.67;37.88;41.68;;
40465;Laerm;30489;48.982;8.394;2023-02-12T20:01:29;39.68;37.88;41.14;;
40465;Laerm;30489;48.982;8.394;2023-02-12T20:03:39;39.63;37.70;41.22;;
40465;Laerm;30489;48.982;8.394;2023-02-12T20:05:49;39.62;37.88;41.30;;
40465;Laerm;30489;48.982;8.394;2023-02-12T20:08:04;39.64;37.52;41.06;;
40465;Laerm;30489;48.982;8.394;2023-02-12T20:10:14;39.61;37.70;41.14;;
40465;Laerm;30489;48.982;8.394;2023-02-12T20:12:24;39.59;37.70;41.06;;
40465;Laerm;30489;48.982;8.394;2023-02-12T20:14:34;39.57;37.70;41.30;;
40465;Laerm;30489;48.982;8.394;2023-02-12T20:16:44;39.54;37.70;41.06;;
40465;Laerm;30489;48.982;8.394;2023-02-12T20:18:58;39.55;37.52;41.14;;
40465;Laerm;30489;48.982;8.394;2023-02-12T20:21:10;39.55;37.70;41.14;;
40465;Laerm;30489;48.982;8.394;2023-02-12T20:23:20;39.53;37.52;41.46;;
40465;Laerm;30489;48.982;8.394;2023-02-12T20:25:30;39.53;37.52;41.06;;
40465;Laerm;30489;48.982;8.394;2023-02-12T20:27:41;39.52;37.70;41.06;;
40465;Laerm;30489;48.982;8.394;2023-02-12T20:29:51;39.51;37.32;41.14;;
40465;Laerm;30489;48.982;8.394;2023-02-12T20:32:01;39.50;37.52;41.06;;
40465;Laerm;30489;48.982;8.394;2023-02-12T20:34:12;39.50;37.88;41.14;;
40465;Laerm;30489;48.982;8.394;2023-02-12T20:36:23;39.48;37.70;41.14;;
40465;Laerm;30489;48.982;8.394;2023-02-12T20:38:34;39.49;37.52;41.14;;
40465;Laerm;30489;48.982;8.394;2023-02-12T20:40:44;39.49;37.70;41.22;;
40465;Laerm;30489;48.982;8.394;2023-02-12T20:42:54;39.51;37.70;41.22;;
40465;Laerm;30489;48.982;8.394;2023-02-12T20:45:04;39.49;37.32;41.19;;
40465;Laerm;30489;48.982;8.394;2023-02-12T20:47:15;39.48;37.32;41.14;;
40465;Laerm;30489;48.982;8.394;2023-02-12T20:49:25;39.47;37.35;41.06;;
40465;Laerm;30489;48.982;8.394;2023-02-12T20:51:35;39.44;37.52;40.89;;
40465;Laerm;30489;48.982;8.394;2023-02-12T20:53:46;39.46;37.32;41.14;;
40465;Laerm;30489;48.982;8.394;2023-02-12T20:55:59;39.45;37.52;41.06;;
40465;Laerm;30489;48.982;8.394;2023-02-12T20:58:09;39.43;37.32;40.98;;
40465;Laerm;30489;48.982;8.394;2023-02-12T21:00:19;39.42;37.52;40.89;;
40465;Laerm;30489;48.982;8.394;2023-02-12T21:02:30;39.42;37.52;41.06;;
40465;Laerm;30489;48.982;8.394;2023-02-12T21:04:40;39.41;37.70;41.06;;
40465;Laerm;30489;48.982;8.394;2023-02-12T21:06:50;39.42;37.12;40.89;;
40465;Laerm;30489;48.982;8.394;2023-02-12T21:09:00;39.40;37.32;41.14;;
40465;Laerm;30489;48.982;8.394;2023-02-12T21:11:15;39.40;37.32;40.89;;
40465;Laerm;30489;48.982;8.394;2023-02-12T21:13:26;39.38;37.52;40.89;;
40465;Laerm;30489;48.982;8.394;2023-02-12T21:15:36;39.38;37.52;40.98;;
40465;Laerm;30489;48.982;8.394;2023-02-12T21:17:46;39.40;36.20;41.06;;
40465;Laerm;30489;48.982;8.394;2023-02-12T21:19:56;39.41;37.32;40.89;;
40465;Laerm;30489;48.982;8.394;2023-02-12T21:22:07;39.41;37.52;40.89;;
40465;Laerm;30489;48.982;8.394;2023-02-12T21:24:18;39.41;37.52;40.98;;
40465;Laerm;30489;48.982;8.394;2023-02-12T21:26:30;39.43;37.52;40.98;;
40465;Laerm;30489;48.982;8.394;2023-02-12T21:28:41;39.42;37.70;40.98;;
40465;Laerm;30489;48.982;8.394;2023-02-12T21:30:51;39.43;37.32;41.06;;
40465;Laerm;30489;48.982;8.394;2023-02-12T21:33:02;39.44;37.32;41.06;;
40465;Laerm;30489;48.982;8.394;2023-02-12T21:35:12;39.46;36.91;40.98;;
40465;Laerm;30489;48.982;8.394;2023-02-12T21:37:22;39.47;37.70;41.06;;
40465;Laerm;30489;48.982;8.394;2023-02-12T21:39:32;39.45;37.52;40.89;;
40465;Laerm;30489;48.982;8.394;2023-02-12T21:41:43;39.45;37.12;41.38;;
40465;Laerm;30489;48.982;8.394;2023-02-12T21:44:04;39.48;37.70;41.22;;
40465;Laerm;30489;48.982;8.394;2023-02-12T21:46:15;39.48;37.70;41.06;;
40465;Laerm;30489;48.982;8.394;2023-02-12T21:48:26;39.48;37.32;40.98;;
40465;Laerm;30489;48.982;8.394;2023-02-12T21:50:36;39.49;37.70;41.14;;
40465;Laerm;30489;48.982;8.394;2023-02-12T21:52:46;39.48;36.91;41.30;;
40465;Laerm;30489;48.982;8.394;2023-02-12T21:54:56;39.48;37.52;40.89;;
40465;Laerm;30489;48.982;8.394;2023-02-12T21:57:07;39.49;37.70;41.14;;
40465;Laerm;30489;48.982;8.394;2023-02-12T21:59:17;39.51;37.52;41.22;;
40465;Laerm;30489;48.982;8.394;2023-02-12T22:01:29;39.50;37.12;41.22;;
40465;Laerm;30489;48.982;8.394;2023-02-12T22:03:41;39.48;37.32;41.14;;
40465;Laerm;30489;48.982;8.394;2023-02-12T22:05:57;39.50;37.70;41.30;;
40465;Laerm;30489;48.982;8.394;2023-02-12T22:08:08;39.49;37.32;40.98;;
40465;Laerm;30489;48.982;8.394;2023-02-12T22:10:18;39.49;37.52;41.22;;
40465;Laerm;30489;48.982;8.394;2023-02-12T22:12:28;39.48;37.12;40.98;;
40465;Laerm;30489;48.982;8.394;2023-02-12T22:14:41;39.48;37.32;40.98;;
40465;Laerm;30489;48.982;8.394;2023-02-12T22:16:51;39.46;37.70;40.98;;
40465;Laerm;30489;48.982;8.394;2023-02-12T22:19:02;39.45;37.32;40.98;;
40465;Laerm;30489;48.982;8.394;2023-02-12T22:21:13;39.45;37.32;40.98;;
40465;Laerm;30489;48.982;8.394;2023-02-12T22:23:23;39.45;37.70;40.89;;
40465;Laerm;30489;48.982;8.394;2023-02-12T22:25:33;39.43;37.32;41.06;;
40465;Laerm;30489;48.982;8.394;2023-02-12T22:27:44;39.43;37.35;41.14;;
40465;Laerm;30489;48.982;8.394;2023-02-12T22:29:54;39.42;37.52;40.98;;
40465;Laerm;30489;48.982;8.394;2023-02-12T22:32:04;39.41;37.52;41.22;;
40465;Laerm;30489;48.982;8.394;2023-02-12T22:34:15;39.40;37.52;41.14;;
40465;Laerm;30489;48.982;8.394;2023-02-12T22:36:26;39.38;36.91;41.38;;
40465;Laerm;30489;48.982;8.394;2023-02-12T22:38:38;39.38;37.52;41.46;;
40465;Laerm;30489;48.982;8.394;2023-02-12T22:40:50;39.39;37.32;41.22;;
40465;Laerm;30489;48.982;8.394;2023-02-12T22:43:00;39.37;37.52;41.22;;
40465;Laerm;30489;48.982;8.394;2023-02-12T22:45:18;39.34;36.91;41.06;;
40465;Laerm;30489;48.982;8.394;2023-02-12T22:47:28;39.34;37.52;41.38;;
40465;Laerm;30489;48.982;8.394;2023-02-12T22:49:41;39.32;37.12;41.06;;
40465;Laerm;30489;48.982;8.394;2023-02-12T22:51:51;39.30;37.52;40.80;;
40465;Laerm;30489;48.982;8.394;2023-02-12T22:54:01;39.32;37.32;41.06;;
40465;Laerm;30489;48.982;8.394;2023-02-12T22:56:12;39.27;37.32;40.80;;
40465;Laerm;30489;48.982;8.394;2023-02-12T22:58:22;39.26;37.12;41.06;;
40465;Laerm;30489;48.982;8.394;2023-02-12T23:00:32;39.26;37.12;41.06;;
40465;Laerm;30489;48.982;8.394;2023-02-12T23:02:43;39.26;37.12;40.89;;
40465;Laerm;30489;48.982;8.394;2023-02-12T23:04:53;39.25;36.91;40.89;;
40465;Laerm;30489;48.982;8.394;2023-02-12T23:07:03;39.22;37.12;40.89;;
40465;Laerm;30489;48.982;8.394;2023-02-12T23:09:14;39.24;37.12;40.98;;
40465;Laerm;30489;48.982;8.394;2023-02-12T23:11:26;39.20;37.32;40.89;;
40465;Laerm;30489;48.982;8.394;2023-02-12T23:13:37;39.20;37.12;41.14;;
40465;Laerm;30489;48.982;8.394;2023-02-12T23:15:47;39.18;37.12;40.89;;
40465;Laerm;30489;48.982;8.394;2023-02-12T23:17:57;39.17;37.12;40.98;;
40465;Laerm;30489;48.982;8.394;2023-02-12T23:20:08;39.20;37.12;41.06;;
40465;Laerm;30489;48.982;8.394;2023-02-12T23:22:18;39.19;36.91;40.98;;
40465;Laerm;30489;48.982;8.394;2023-02-12T23:24:28;39.18;36.91;41.11;;
40465;Laerm;30489;48.982;8.394;2023-02-12T23:26:38;39.18;36.91;40.80;;
40465;Laerm;30489;48.982;8.394;2023-02-12T23:28:49;39.17;36.45;41.06;;
40465;Laerm;30489;48.982;8.394;2023-02-12T23:30:59;39.15;36.69;40.80;;
40465;Laerm;30489;48.982;8.394;2023-02-12T23:33:09;39.16;36.69;41.06;;
40465;Laerm;30489;48.982;8.394;2023-02-12T23:35:20;39.14;36.91;40.80;;
40465;Laerm;30489;48.982;8.394;2023-02-12T23:37:30;39.15;37.12;40.80;;
40465;Laerm;30489;48.982;8.394;2023-02-12T23:39:40;39.14;36.91;40.80;;
40465;Laerm;30489;48.982;8.394;2023-02-12T23:41:50;39.11;37.12;40.89;;
40465;Laerm;30489;48.982;8.394;2023-02-12T23:44:01;39.13;37.12;40.89;;
40465;Laerm;30489;48.982;8.394;2023-02-12T23:46:11;39.08;36.91;40.71;;
40465;Laerm;30489;48.982;8.394;2023-02-12T23:48:21;39.09;37.12;40.71;;
40465;Laerm;30489;48.982;8.394;2023-02-12T23:50:32;39.07;36.91;40.89;;
40465;Laerm;30489;48.982;8.394;2023-02-12T23:52:42;39.06;36.69;40.98;;
40465;Laerm;30489;48.982;8.394;2023-02-12T23:54:52;39.04;36.69;40.80;;
40465;Laerm;30489;48.982;8.394;2023-02-12T23:57:03;39.04;36.91;41.06;;
40465;Laerm;30489;48.982;8.394;2023-02-12T23:59:13;39.04;37.12;40.71;;
